Time;durP1;ratioP1;P1;durP2;ratioP2;P2;SDS_P1;SDS_P2;PMS_P1;PMS_P2;Temp;Humidity;BMP_temperature;BMP_pressure;BME280_temperature;BME280_humidity;BME280_pressure;Samples;Min_cycle;Max_cycle;Signal;HPM_P1;HPM_P2
2021/09/21 00:02:25;;;;;;;51.17;24.60;;;10.00;90.90;;;;;;5089804;28;20701;-69
2021/09/21 00:04:54;;;;;;;37.95;20.30;;;10.00;91.00;;;;;;5091163;28;20095;-69
2021/09/21 00:07:20;;;;;;;43.38;21.02;;;10.00;91.50;;;;;;5088754;28;20032;-68
2021/09/21 00:09:46;;;;;;;40.60;19.75;;;9.90;92.30;;;;;;5082319;28;20547;-69
2021/09/21 00:12:11;;;;;;;36.10;20.15;;;9.80;91.90;;;;;;5088809;28;20031;-68
2021/09/21 00:14:38;;;;;;;41.28;20.55;;;9.80;91.50;;;;;;5087286;28;20086;-69
2021/09/21 00:17:04;;;;;;;33.33;18.25;;;9.90;91.00;;;;;;5090263;28;20457;-69
2021/09/21 00:19:32;;;;;;;41.22;21.58;;;10.00;91.10;;;;;;5094476;28;20028;-69
2021/09/21 00:21:58;;;;;;;40.65;21.40;;;10.00;91.30;;;;;;5080077;28;20153;-69
2021/09/21 00:24:24;;;;;;;40.95;20.95;;;10.00;92.10;;;;;;5088379;28;20077;-69
2021/09/21 00:26:49;;;;;;;47.05;22.13;;;10.00;92.60;;;;;;5084896;28;20428;-69
2021/09/21 00:29:15;;;;;;;38.70;19.85;;;9.90;92.80;;;;;;5091739;28;20368;-68
2021/09/21 00:31:41;;;;;;;34.17;20.58;;;9.90;92.60;;;;;;5086635;28;20032;-69
2021/09/21 00:34:13;;;;;;;33.83;19.50;;;9.90;92.40;;;;;;5093636;28;20024;-70
2021/09/21 00:36:41;;;;;;;36.88;20.30;;;9.90;92.10;;;;;;5092586;28;20443;-69
2021/09/21 00:39:10;;;;;;;33.95;19.55;;;10.00;91.50;;;;;;5091426;28;20031;-69
2021/09/21 00:41:38;;;;;;;30.83;19.10;;;10.00;92.00;;;;;;5091661;28;20186;-69
2021/09/21 00:44:05;;;;;;;38.25;20.38;;;10.10;91.90;;;;;;5093281;28;20064;-68
2021/09/21 00:46:32;;;;;;;48.72;21.05;;;10.10;92.10;;;;;;5091912;28;20024;-69
2021/09/21 00:48:57;;;;;;;38.30;20.67;;;10.10;92.00;;;;;;5092757;28;20020;-67
2021/09/21 00:51:24;;;;;;;33.00;18.42;;;10.10;91.90;;;;;;5091758;28;20046;-69
2021/09/21 00:53:50;;;;;;;41.33;19.67;;;10.10;91.80;;;;;;5093844;28;20028;-68
2021/09/21 00:56:16;;;;;;;33.55;18.02;;;10.10;92.10;;;;;;5092721;28;20055;-69
2021/09/21 00:58:42;;;;;;;26.73;16.08;;;10.10;92.30;;;;;;5092781;28;20142;-69
2021/09/21 01:01:08;;;;;;;29.42;16.95;;;10.10;91.70;;;;;;5092499;28;20057;-69
2021/09/21 01:03:33;;;;;;;29.63;16.55;;;10.20;91.30;;;;;;5098646;28;20035;-69
2021/09/21 01:05:59;;;;;;;32.38;18.80;;;10.30;91.30;;;;;;5097816;28;20016;-68
2021/09/21 01:08:29;;;;;;;46.45;21.92;;;10.30;91.90;;;;;;5092644;28;20416;-69
2021/09/21 01:10:55;;;;;;;31.20;18.35;;;10.40;92.20;;;;;;5093261;28;20313;-68
2021/09/21 01:13:24;;;;;;;35.63;19.23;;;10.40;91.70;;;;;;5093956;28;20027;-70
2021/09/21 01:15:51;;;;;;;38.00;20.40;;;10.40;92.60;;;;;;5094576;28;20040;-70
2021/09/21 01:18:17;;;;;;;34.13;19.85;;;10.40;92.90;;;;;;5097570;28;20024;-69
2021/09/21 01:20:42;;;;;;;37.05;20.42;;;10.40;92.80;;;;;;5096181;28;20056;-68
2021/09/21 01:23:08;;;;;;;41.20;21.23;;;10.30;92.80;;;;;;5097249;28;20077;-69
2021/09/21 01:25:34;;;;;;;44.47;21.70;;;10.30;92.70;;;;;;5097779;28;20039;-69
2021/09/21 01:28:00;;;;;;;43.95;23.25;;;10.30;93.00;;;;;;5095592;28;20032;-69
2021/09/21 01:30:26;;;;;;;49.78;26.17;;;10.40;92.50;;;;;;5098298;28;20039;-70
2021/09/21 01:32:52;;;;;;;48.28;25.48;;;10.50;92.20;;;;;;5097016;28;20412;-70
2021/09/21 01:35:17;;;;;;;51.08;27.02;;;10.50;92.30;;;;;;5095431;28;20036;-69
2021/09/21 01:37:47;;;;;;;48.88;24.40;;;10.50;93.00;;;;;;5097500;28;20028;-70
2021/09/21 01:40:15;;;;;;;42.30;24.33;;;10.50;93.10;;;;;;5096207;28;20290;-69
2021/09/21 01:42:43;;;;;;;39.67;22.42;;;10.50;93.20;;;;;;5094125;28;20017;-70
2021/09/21 01:45:10;;;;;;;41.28;22.88;;;10.50;93.40;;;;;;5091457;28;20031;-69
2021/09/21 01:47:36;;;;;;;35.88;21.38;;;10.50;93.40;;;;;;5093635;28;20553;-70
2021/09/21 01:52:35;;;;;;;49.10;23.80;;;10.50;93.10;;;;;;5096101;28;20020;-68
2021/09/21 01:55:11;;;;;;;53.65;24.92;;;10.40;93.40;;;;;;5096406;28;20032;-68
2021/09/21 02:00:21;;;;;;;;;;;10.40;93.00;;;;;;5094645;28;20043;-68
2021/09/21 02:02:47;;;;;;;53.75;27.50;;;10.40;92.70;;;;;;5097151;28;19908;-70
2021/09/21 02:05:12;;;;;;;62.47;28.35;;;10.40;93.30;;;;;;5097317;28;20024;-69
2021/09/21 02:07:38;;;;;;;64.25;29.98;;;10.40;93.10;;;;;;5089380;28;20028;-69
2021/09/21 02:10:04;;;;;;;62.88;29.17;;;10.30;93.00;;;;;;5096295;28;20028;-70
2021/09/21 02:12:30;;;;;;;46.78;25.70;;;10.30;93.20;;;;;;5095252;28;20020;-70
2021/09/21 02:14:59;;;;;;;59.90;28.83;;;10.30;92.70;;;;;;5095844;28;20085;-70
2021/09/21 02:17:25;;;;;;;45.22;24.50;;;10.30;92.90;;;;;;5096262;28;20115;-70
2021/09/21 02:19:51;;;;;;;45.53;23.80;;;10.30;92.80;;;;;;5094433;28;20444;-69
2021/09/21 02:22:16;;;;;;;38.78;21.50;;;10.30;93.30;;;;;;5084450;28;20076;-69
2021/09/21 02:24:42;;;;;;;42.10;23.02;;;10.20;93.20;;;;;;5082604;28;20031;-69
2021/09/21 02:27:08;;;;;;;37.30;21.25;;;10.20;93.00;;;;;;5094516;28;20028;-69
2021/09/21 02:29:33;;;;;;;37.30;21.52;;;10.20;93.00;;;;;;5097333;28;20032;-69
2021/09/21 02:31:59;;;;;;;42.35;23.80;;;10.30;93.30;;;;;;5093040;28;20049;-69
2021/09/21 02:34:25;;;;;;;41.50;22.40;;;10.20;93.30;;;;;;5089760;28;20097;-69
2021/09/21 02:36:50;;;;;;;37.78;21.65;;;10.20;93.30;;;;;;5093391;28;20050;-69
2021/09/21 02:39:16;;;;;;;38.22;21.30;;;10.30;92.40;;;;;;5095613;28;20352;-70
2021/09/21 02:41:42;;;;;;;40.08;22.83;;;10.30;92.90;;;;;;5096129;28;20024;-69
2021/09/21 02:44:07;;;;;;;42.00;22.10;;;10.30;93.10;;;;;;5095691;28;20056;-68
2021/09/21 02:46:33;;;;;;;39.10;21.95;;;10.40;92.70;;;;;;5096419;28;20371;-69
2021/09/21 02:49:02;;;;;;;44.47;25.58;;;10.50;92.90;;;;;;5096526;28;20046;-69
2021/09/21 02:51:27;;;;;;;45.95;25.40;;;10.50;93.50;;;;;;5095194;28;20315;-70
2021/09/21 02:53:53;;;;;;;49.58;27.02;;;10.40;93.20;;;;;;5096533;28;20028;-69
2021/09/21 02:56:18;;;;;;;52.58;25.55;;;10.50;93.00;;;;;;5093202;28;20488;-68
2021/09/21 02:58:44;;;;;;;41.17;24.80;;;10.50;93.40;;;;;;5096733;28;20041;-69
2021/09/21 03:01:11;;;;;;;44.03;24.75;;;10.50;93.00;;;;;;5095050;28;20024;-69
2021/09/21 03:03:47;;;;;;;41.00;23.23;;;10.50;93.20;;;;;;5095853;28;20391;-69
2021/09/21 03:06:25;;;;;;;34.53;20.20;;;10.50;93.10;;;;;;5095631;28;20024;-69
2021/09/21 03:08:54;;;;;;;37.90;20.83;;;10.50;93.20;;;;;;5086991;28;20115;-69
2021/09/21 03:11:25;;;;;;;39.72;23.20;;;10.50;93.30;;;;;;5094754;28;20381;-71
2021/09/21 03:19:06;;;;;;;36.55;21.52;;;10.50;93.20;;;;;;5073779;28;20061;-70
2021/09/21 03:21:33;;;;;;;41.35;22.67;;;10.50;92.90;;;;;;5093694;28;20032;-69
2021/09/21 03:23:59;;;;;;;41.35;23.10;;;10.60;93.10;;;;;;5096289;28;20024;-69
2021/09/21 03:26:24;;;;;;;36.30;21.50;;;10.50;93.60;;;;;;5093728;28;20429;-68
2021/09/21 03:28:50;;;;;;;43.67;22.75;;;10.50;93.40;;;;;;5096394;28;20059;-70
2021/09/21 03:31:16;;;;;;;44.03;24.45;;;10.50;93.30;;;;;;5094624;28;20040;-69
2021/09/21 03:33:42;;;;;;;37.35;21.65;;;10.50;93.70;;;;;;5094807;28;20031;-69
2021/09/21 03:36:08;;;;;;;38.47;22.30;;;10.50;93.80;;;;;;5094514;28;20325;-69
2021/09/21 03:38:33;;;;;;;43.15;22.25;;;10.60;93.60;;;;;;5094598;28;20028;-70
2021/09/21 03:41:01;;;;;;;45.08;22.58;;;10.60;94.00;;;;;;5094795;28;20078;-70
2021/09/21 03:43:27;;;;;;;41.80;23.17;;;10.50;94.00;;;;;;5092863;28;20020;-69
2021/09/21 03:45:53;;;;;;;41.80;23.60;;;10.60;93.90;;;;;;5095628;28;20436;-69
2021/09/21 03:48:18;;;;;;;44.22;23.85;;;10.60;93.70;;;;;;5094907;28;20080;-69
2021/09/21 03:50:44;;;;;;;42.75;23.65;;;10.50;94.00;;;;;;5094884;28;20034;-69
2021/09/21 03:53:10;;;;;;;37.88;22.45;;;10.50;94.10;;;;;;5096198;28;20107;-69
2021/09/21 03:55:53;;;;;;;48.03;24.75;;;10.50;94.10;;;;;;5092232;28;20039;-68
2021/09/21 03:58:20;;;;;;;;;;;10.50;94.30;;;;;;5093237;28;20020;-68
2021/09/21 04:00:45;;;;;;;38.42;20.88;;;10.50;94.30;;;;;;5090055;28;20300;-71
2021/09/21 04:03:11;;;;;;;39.92;21.75;;;10.50;94.00;;;;;;5084470;28;20039;-69
2021/09/21 04:05:37;;;;;;;40.10;21.13;;;10.50;94.00;;;;;;5094098;28;20034;-69
2021/09/21 04:08:03;;;;;;;38.17;21.65;;;10.60;93.70;;;;;;5094117;28;20031;-70
2021/09/21 04:10:28;;;;;;;37.45;20.80;;;10.60;94.00;;;;;;5094386;28;20059;-68
2021/09/21 04:12:54;;;;;;;40.45;21.42;;;10.60;94.20;;;;;;5092441;28;20051;-69
2021/09/21 04:15:19;;;;;;;36.50;21.20;;;10.60;94.00;;;;;;5092778;28;20078;-69
2021/09/21 04:17:45;;;;;;;43.92;22.50;;;10.60;94.20;;;;;;5095087;28;20031;-70
2021/09/21 04:20:11;;;;;;;42.22;21.10;;;10.60;94.20;;;;;;5095298;28;20024;-69
2021/09/21 04:22:39;;;;;;;45.80;23.80;;;10.60;94.10;;;;;;5095538;28;20024;-70
2021/09/21 04:25:08;;;;;;;36.95;19.63;;;10.50;94.40;;;;;;5093359;28;20405;-69
2021/09/21 04:27:34;;;;;;;33.50;19.70;;;10.60;94.00;;;;;;5103786;28;20420;-70
2021/09/21 04:30:01;;;;;;;32.38;19.17;;;10.60;94.00;;;;;;5097049;28;20020;-69
2021/09/21 04:32:30;;;;;;;32.03;18.50;;;10.60;94.10;;;;;;5094511;28;20039;-69
2021/09/21 04:34:55;;;;;;;37.72;20.80;;;10.60;94.20;;;;;;5092590;28;20115;-69
2021/09/21 04:37:21;;;;;;;34.30;19.02;;;10.60;94.50;;;;;;5095429;28;20107;-70
2021/09/21 04:39:47;;;;;;;33.80;18.23;;;10.60;94.70;;;;;;5099897;28;20099;-70
2021/09/21 04:42:13;;;;;;;39.03;20.90;;;10.70;94.70;;;;;;5098846;28;20020;-70
2021/09/21 04:44:39;;;;;;;34.95;20.25;;;10.60;94.70;;;;;;5097824;28;20103;-69
2021/09/21 04:47:05;;;;;;;33.80;19.02;;;10.60;94.40;;;;;;5099587;28;20363;-69
2021/09/21 04:49:32;;;;;;;40.28;21.65;;;10.60;94.60;;;;;;5097977;28;20028;-68
2021/09/21 04:51:57;;;;;;;41.70;21.80;;;10.60;94.90;;;;;;5098174;28;20039;-68
2021/09/21 04:54:23;;;;;;;37.63;19.35;;;10.60;95.10;;;;;;5098411;28;20031;-69
2021/09/21 04:56:49;;;;;;;34.20;19.40;;;10.60;94.50;;;;;;5097509;28;20024;-68
2021/09/21 04:59:14;;;;;;;39.75;21.15;;;10.60;94.60;;;;;;5098923;28;20057;-70
2021/09/21 05:01:40;;;;;;;46.47;24.20;;;10.60;95.30;;;;;;5099484;28;20082;-70
2021/09/21 05:04:05;;;;;;;46.28;23.52;;;10.60;95.30;;;;;;5099172;28;20417;-70
2021/09/21 05:06:31;;;;;;;43.22;22.73;;;10.60;95.30;;;;;;5098961;28;20046;-70
2021/09/21 05:08:57;;;;;;;39.95;22.85;;;10.70;94.70;;;;;;5099230;28;20035;-70
2021/09/21 05:11:23;;;;;;;45.95;24.65;;;10.70;94.40;;;;;;5098296;28;20034;-70
2021/09/21 05:13:48;;;;;;;46.10;23.40;;;10.70;95.10;;;;;;5099313;28;20031;-70
2021/09/21 05:16:17;;;;;;;45.53;23.10;;;10.70;94.70;;;;;;5098529;28;20543;-68
2021/09/21 05:18:42;;;;;;;48.70;23.95;;;10.70;94.60;;;;;;5098489;28;20024;-69
2021/09/21 05:21:08;;;;;;;57.45;25.48;;;10.70;94.90;;;;;;5099123;28;20073;-69
2021/09/21 05:23:34;;;;;;;42.35;24.55;;;10.70;94.70;;;;;;5099283;28;20024;-69
2021/09/21 05:25:59;;;;;;;39.38;21.45;;;10.70;94.60;;;;;;5099196;28;20107;-69
2021/09/21 05:28:28;;;;;;;38.58;24.02;;;10.70;94.70;;;;;;5097644;28;20032;-69
2021/09/21 05:30:54;;;;;;;39.00;22.40;;;10.70;94.60;;;;;;5098157;28;20024;-70
2021/09/21 05:33:19;;;;;;;55.40;27.55;;;10.70;94.50;;;;;;5098497;28;20024;-69
2021/09/21 05:35:45;;;;;;;43.90;25.98;;;10.70;94.80;;;;;;5099055;28;20024;-69
2021/09/21 05:38:11;;;;;;;50.85;25.25;;;10.70;94.00;;;;;;5098333;28;20020;-69
2021/09/21 05:40:36;;;;;;;54.72;28.63;;;10.60;94.80;;;;;;5096317;28;20354;-69
2021/09/21 05:43:02;;;;;;;49.85;26.45;;;10.70;94.40;;;;;;5092910;28;20020;-70
2021/09/21 05:45:28;;;;;;;50.72;27.70;;;10.70;94.80;;;;;;5098188;28;20058;-69
2021/09/21 05:47:54;;;;;;;59.47;29.15;;;10.60;94.80;;;;;;5098415;28;20027;-69
2021/09/21 05:50:20;;;;;;;68.95;31.27;;;10.70;94.40;;;;;;5098657;28;20016;-70
2021/09/21 05:52:46;;;;;;;49.88;27.98;;;10.70;94.50;;;;;;5098471;28;20024;-69
2021/09/21 05:55:12;;;;;;;80.60;32.15;;;10.70;94.40;;;;;;5098294;28;20060;-69
2021/09/21 05:57:40;;;;;;;56.80;31.10;;;10.70;94.50;;;;;;5096616;28;20020;-68
2021/09/21 06:00:06;;;;;;;52.63;28.58;;;10.60;94.60;;;;;;5097992;28;20020;-70
2021/09/21 06:02:32;;;;;;;52.13;28.75;;;10.70;94.20;;;;;;5096820;28;20386;-69
2021/09/21 06:04:58;;;;;;;53.65;28.20;;;10.70;94.20;;;;;;5098366;28;20099;-69
2021/09/21 06:07:26;;;;;;;56.25;28.50;;;10.70;94.50;;;;;;5094021;28;20050;-69
2021/09/21 06:09:52;;;;;;;61.90;29.50;;;10.60;95.00;;;;;;5083335;28;20048;-70
2021/09/21 06:12:17;;;;;;;42.33;22.23;;;10.60;94.40;;;;;;5077995;28;20060;-71
2021/09/21 06:14:43;;;;;;;54.65;25.38;;;10.60;94.70;;;;;;5098112;28;20027;-70
2021/09/21 06:17:09;;;;;;;48.95;24.83;;;10.50;95.10;;;;;;5097907;28;20094;-72
2021/09/21 06:19:34;;;;;;;38.35;22.45;;;10.50;95.00;;;;;;5098307;28;20073;-72
2021/09/21 06:22:00;;;;;;;34.25;20.58;;;10.40;94.50;;;;;;5097995;28;20012;-72
2021/09/21 06:24:26;;;;;;;38.83;20.85;;;10.50;94.10;;;;;;5097141;28;20054;-71
2021/09/21 06:26:51;;;;;;;37.28;20.20;;;10.50;93.90;;;;;;5076444;28;20055;-71
2021/09/21 06:29:17;;;;;;;30.25;19.55;;;10.60;93.80;;;;;;5085107;28;20032;-71
2021/09/21 06:31:46;;;;;;;28.48;18.00;;;10.70;93.30;;;;;;5097315;28;20024;-71
2021/09/21 06:34:11;;;;;;;32.42;18.30;;;10.80;93.30;;;;;;5097632;28;20047;-70
2021/09/21 06:36:37;;;;;;;28.10;16.67;;;10.90;93.40;;;;;;5097202;28;20032;-70
2021/09/21 06:39:03;;;;;;;31.08;17.58;;;10.90;93.50;;;;;;5097782;28;20027;-70
2021/09/21 06:41:29;;;;;;;35.83;17.52;;;11.00;93.10;;;;;;5096422;28;20016;-70
2021/09/21 06:43:55;;;;;;;24.38;15.95;;;11.10;93.00;;;;;;5096610;28;20088;-70
2021/09/21 06:46:20;;;;;;;22.30;14.25;;;11.10;93.60;;;;;;5097446;28;20024;-71
2021/09/21 06:48:46;;;;;;;22.48;13.95;;;11.20;93.50;;;;;;5097543;28;20024;-70
2021/09/21 06:51:12;;;;;;;22.60;14.38;;;11.20;94.40;;;;;;5097462;28;20020;-71
2021/09/21 06:53:38;;;;;;;23.38;14.68;;;11.30;94.00;;;;;;5097516;28;20050;-70
2021/09/21 06:56:04;;;;;;;19.58;12.52;;;11.30;94.50;;;;;;5097227;28;20024;-70
2021/09/21 06:58:33;;;;;;;19.48;12.90;;;11.30;94.50;;;;;;5095815;28;20156;-70
2021/09/21 07:00:59;;;;;;;18.73;12.52;;;11.30;94.80;;;;;;5096253;28;20096;-70
2021/09/21 07:03:25;;;;;;;17.00;10.73;;;11.50;94.50;;;;;;5096902;28;20055;-72
2021/09/21 07:05:53;;;;;;;17.45;10.73;;;11.60;95.60;;;;;;5097324;28;20023;-70
2021/09/21 07:08:19;;;;;;;19.65;12.25;;;11.60;97.40;;;;;;5097302;28;20051;-71
2021/09/21 07:10:47;;;;;;;19.33;11.32;;;11.70;98.00;;;;;;5096782;28;20584;-71
2021/09/21 07:13:13;;;;;;;20.35;11.98;;;11.70;98.00;;;;;;5095771;28;20375;-71
2021/09/21 07:15:38;;;;;;;23.98;15.00;;;11.70;98.00;;;;;;5096220;28;20115;-71
2021/09/21 07:18:04;;;;;;;22.50;14.75;;;11.80;98.00;;;;;;5096240;28;20093;-70
2021/09/21 07:20:30;;;;;;;23.67;15.50;;;11.90;98.00;;;;;;5096860;28;20371;-70
2021/09/21 07:22:56;;;;;;;28.42;17.10;;;11.90;98.00;;;;;;5096902;28;20016;-70
2021/09/21 07:25:23;;;;;;;29.77;18.15;;;11.90;98.00;;;;;;5096895;28;20031;-71
2021/09/21 07:27:52;;;;;;;28.25;18.45;;;11.90;98.00;;;;;;5095559;28;20103;-70
2021/09/21 07:30:17;;;;;;;29.90;19.88;;;11.80;98.00;;;;;;5096768;28;20024;-70
2021/09/21 07:32:44;;;;;;;34.80;22.02;;;11.70;98.00;;;;;;5096752;28;20024;-70
2021/09/21 07:35:10;;;;;;;33.95;20.85;;;11.60;98.00;;;;;;5096748;28;20044;-70
2021/09/21 07:37:36;;;;;;;32.17;20.48;;;11.60;98.00;;;;;;5096344;28;20024;-70
2021/09/21 07:40:03;;;;;;;35.72;21.75;;;11.70;98.00;;;;;;5096390;28;20020;-69
2021/09/21 07:42:28;;;;;;;33.05;21.13;;;11.70;98.00;;;;;;5095098;28;20081;-69
2021/09/21 07:44:56;;;;;;;38.67;23.33;;;11.80;98.00;;;;;;5096653;28;20102;-69
2021/09/21 07:47:23;;;;;;;33.58;22.55;;;11.80;98.00;;;;;;5116752;28;20023;-68
2021/09/21 07:49:48;;;;;;;37.58;22.95;;;11.70;98.00;;;;;;5117051;28;20038;-69
2021/09/21 07:52:14;;;;;;;36.92;23.80;;;11.70;98.00;;;;;;5116946;28;20024;-69
2021/09/21 07:54:40;;;;;;;38.17;23.40;;;11.60;98.00;;;;;;5116654;28;20443;-71
2021/09/21 07:57:05;;;;;;;36.65;21.33;;;11.60;98.00;;;;;;5115489;28;20315;-70
2021/09/21 07:59:32;;;;;;;33.25;21.80;;;11.50;98.00;;;;;;5116690;28;20016;-71
2021/09/21 08:02:01;;;;;;;34.85;22.10;;;11.50;98.00;;;;;;5116610;28;20095;-70
2021/09/21 08:04:27;;;;;;;35.35;20.77;;;11.50;98.00;;;;;;5116632;28;20020;-71
2021/09/21 08:06:53;;;;;;;30.77;20.30;;;11.60;98.00;;;;;;5116630;28;20023;-70
2021/09/21 08:09:21;;;;;;;30.48;20.02;;;11.70;98.00;;;;;;5096952;28;20028;-70
2021/09/21 08:11:47;;;;;;;27.35;19.27;;;12.00;98.00;;;;;;5094356;28;20073;-70
2021/09/21 08:14:14;;;;;;;30.42;20.58;;;12.30;98.00;;;;;;5096238;28;20044;-70
2021/09/21 08:16:39;;;;;;;29.45;20.30;;;12.70;98.00;;;;;;5095795;28;20033;-70
2021/09/21 08:19:05;;;;;;;27.40;19.40;;;12.70;98.00;;;;;;5096127;28;20028;-72
2021/09/21 08:21:31;;;;;;;25.55;18.23;;;12.60;98.00;;;;;;5096197;28;20021;-70
2021/09/21 08:23:56;;;;;;;27.48;19.02;;;12.70;98.00;;;;;;5094442;28;20081;-69
2021/09/21 08:26:22;;;;;;;23.63;16.58;;;12.90;98.00;;;;;;5094563;28;20039;-71
2021/09/21 08:28:48;;;;;;;27.02;17.40;;;12.90;98.00;;;;;;5095933;28;20107;-70
2021/09/21 08:31:14;;;;;;;24.85;17.08;;;12.90;98.00;;;;;;5096059;28;20424;-70
2021/09/21 08:33:40;;;;;;;27.08;17.50;;;13.00;98.00;;;;;;5095806;28;20316;-70
2021/09/21 08:36:05;;;;;;;24.17;16.98;;;13.20;98.00;;;;;;5095899;28;20028;-71
2021/09/21 08:38:31;;;;;;;26.98;17.15;;;13.20;98.00;;;;;;5095033;28;20047;-70
2021/09/21 08:40:57;;;;;;;21.85;15.00;;;13.60;98.00;;;;;;5095504;28;20024;-71
2021/09/21 08:43:22;;;;;;;23.80;15.73;;;14.00;98.00;;;;;;5094669;28;20023;-71
2021/09/21 08:45:48;;;;;;;22.20;14.57;;;14.20;98.00;;;;;;5095828;28;20451;-70
2021/09/21 08:48:14;;;;;;;21.33;14.70;;;14.40;98.00;;;;;;5095760;28;20024;-69
2021/09/21 08:50:40;;;;;;;21.17;13.80;;;14.60;97.70;;;;;;5094908;28;20035;-70
2021/09/21 08:53:05;;;;;;;18.50;13.55;;;14.70;96.70;;;;;;5094658;28;20024;-72
2021/09/21 08:55:32;;;;;;;19.20;13.70;;;14.80;97.80;;;;;;5095366;28;20056;-70
2021/09/21 08:57:58;;;;;;;21.25;14.02;;;14.80;97.50;;;;;;5094590;28;20137;-70
2021/09/21 09:00:29;;;;;;;21.33;14.25;;;14.90;96.90;;;;;;5095731;28;20020;-71
2021/09/21 09:03:12;;;;;;;20.67;14.93;;;15.00;96.90;;;;;;5095752;28;20016;-70
2021/09/21 09:05:47;;;;;;;18.92;13.48;;;15.30;95.30;;;;;;5094626;28;20020;-70
2021/09/21 09:08:14;;;;;;;18.92;13.63;;;15.40;95.10;;;;;;5095048;28;20020;-70
2021/09/21 09:10:39;;;;;;;19.83;12.65;;;15.20;93.30;;;;;;5095497;28;20400;-70
2021/09/21 09:13:17;;;;;;;22.75;14.40;;;14.80;94.60;;;;;;5093077;28;20052;-70
2021/09/21 09:15:54;;;;;;;25.25;14.40;;;14.80;96.50;;;;;;5094608;28;20123;-70
2021/09/21 09:18:27;;;;;;;20.77;13.90;;;14.50;97.00;;;;;;5090922;28;20047;-70
2021/09/21 09:20:53;;;;;;;20.63;13.95;;;14.40;96.80;;;;;;5095718;28;20072;-70
2021/09/21 09:23:19;;;;;;;22.00;13.32;;;14.30;95.90;;;;;;5095990;28;20081;-70
2021/09/21 09:25:48;;;;;;;19.95;12.48;;;14.50;97.60;;;;;;5098238;28;20408;-70
2021/09/21 09:28:20;;;;;;;15.98;11.90;;;15.00;97.00;;;;;;5097984;28;20027;-70
2021/09/21 09:30:49;;;;;;;16.48;11.73;;;15.80;94.60;;;;;;5099070;28;20024;-70
2021/09/21 09:33:16;;;;;;;18.35;11.30;;;16.40;90.70;;;;;;5099008;28;20028;-70
2021/09/21 09:35:44;;;;;;;14.85;10.55;;;17.00;89.10;;;;;;5098899;28;20031;-70
2021/09/21 09:38:13;;;;;;;17.77;9.95;;;16.80;88.20;;;;;;5098734;28;20021;-70
2021/09/21 09:40:50;;;;;;;19.25;10.88;;;16.50;87.50;;;;;;5098791;28;20027;-70
2021/09/21 09:43:22;;;;;;;19.90;11.38;;;15.90;88.00;;;;;;5097522;28;20020;-70
2021/09/21 09:45:50;;;;;;;18.27;11.43;;;15.60;90.50;;;;;;5094274;28;20103;-70
2021/09/21 09:48:18;;;;;;;20.23;11.90;;;15.70;90.30;;;;;;5086074;28;20025;-69
2021/09/21 09:50:47;;;;;;;15.45;10.88;;;15.60;88.50;;;;;;5098288;28;20020;-70
2021/09/21 09:53:14;;;;;;;17.55;11.18;;;15.30;89.20;;;;;;5098682;28;20028;-70
2021/09/21 09:55:44;;;;;;;14.52;10.10;;;15.10;90.40;;;;;;5097895;28;20062;-68
2021/09/21 09:58:12;;;;;;;12.85;9.02;;;15.30;89.30;;;;;;5096326;28;20064;-69
2021/09/21 10:00:38;;;;;;;13.07;9.15;;;15.50;89.10;;;;;;5098109;28;20081;-69
2021/09/21 10:03:07;;;;;;;13.55;9.77;;;15.50;86.30;;;;;;5098558;28;20028;-69
2021/09/21 10:05:36;;;;;;;14.13;10.43;;;15.50;88.00;;;;;;5098329;28;20028;-70
2021/09/21 10:08:02;;;;;;;12.80;9.40;;;15.20;89.00;;;;;;5098052;28;20405;-70
2021/09/21 10:10:29;;;;;;;15.35;10.23;;;15.30;87.60;;;;;;5098198;28;20023;-69
2021/09/21 10:12:58;;;;;;;13.02;9.25;;;15.70;87.90;;;;;;5096548;28;20056;-69
2021/09/21 10:15:28;;;;;;;15.13;8.75;;;16.20;86.10;;;;;;5097788;28;20032;-70
2021/09/21 10:17:57;;;;;;;13.82;9.32;;;16.60;85.70;;;;;;5096963;28;20512;-71
2021/09/21 10:20:33;;;;;;;13.02;7.97;;;16.80;84.50;;;;;;5098202;28;20028;-70
2021/09/21 10:23:05;;;;;;;10.88;8.13;;;16.50;82.60;;;;;;5098112;28;20091;-69
2021/09/21 10:25:42;;;;;;;11.45;8.38;;;15.90;82.10;;;;;;5097935;28;20111;-70
2021/09/21 10:28:18;;;;;;;12.75;7.90;;;15.30;84.90;;;;;;5096909;28;20073;-69
2021/09/21 10:30:55;;;;;;;13.40;8.45;;;15.20;85.80;;;;;;5098020;28;20016;-69
2021/09/21 10:33:26;;;;;;;14.07;9.10;;;15.30;86.70;;;;;;5097657;28;20049;-70
2021/09/21 10:35:52;;;;;;;14.85;9.82;;;15.70;86.50;;;;;;5097731;28;20020;-69
2021/09/21 10:38:22;;;;;;;13.48;9.55;;;15.90;84.50;;;;;;5097572;28;20052;-68
2021/09/21 10:40:49;;;;;;;12.73;8.77;;;15.90;83.70;;;;;;5097724;28;20016;-68
2021/09/21 10:43:25;;;;;;;13.20;8.43;;;16.30;83.10;;;;;;5096202;28;20028;-69
2021/09/21 10:45:52;;;;;;;12.13;8.85;;;16.40;83.00;;;;;;5097238;28;20035;-67
2021/09/21 10:48:22;;;;;;;12.40;8.80;;;16.20;81.20;;;;;;5097072;28;20020;-69
2021/09/21 10:50:58;;;;;;;12.88;8.57;;;16.00;83.50;;;;;;5097629;28;20024;-70
2021/09/21 10:53:25;;;;;;;12.55;8.55;;;15.60;84.70;;;;;;5097491;28;20416;-70
2021/09/21 10:56:15;;;;;;;13.18;9.13;;;15.60;82.50;;;;;;5097437;28;20028;-71
2021/09/21 10:58:52;;;;;;;11.60;8.20;;;15.50;83.80;;;;;;5097415;28;20086;-70
2021/09/21 11:01:17;;;;;;;12.27;8.07;;;15.80;85.80;;;;;;5096377;28;20313;-69
2021/09/21 11:03:43;;;;;;;16.00;8.32;;;16.00;82.50;;;;;;5097265;28;20028;-70
2021/09/21 11:06:09;;;;;;;11.60;7.55;;;16.40;82.50;;;;;;5097182;28;20024;-68
2021/09/21 11:08:35;;;;;;;11.68;7.55;;;16.40;82.90;;;;;;5097063;28;20020;-69
2021/09/21 11:11:04;;;;;;;11.70;7.55;;;16.50;83.40;;;;;;5097174;28;20439;-68
2021/09/21 11:13:40;;;;;;;11.73;8.63;;;16.70;84.30;;;;;;5095691;28;20111;-70
2021/09/21 11:16:12;;;;;;;14.75;8.68;;;16.70;80.50;;;;;;5096349;28;20045;-69
2021/09/21 11:18:40;;;;;;;14.82;8.55;;;16.30;82.00;;;;;;5097171;28;20031;-69
2021/09/21 11:21:07;;;;;;;12.40;8.45;;;16.50;81.70;;;;;;5096814;28;20134;-70
2021/09/21 11:23:37;;;;;;;11.68;8.30;;;16.70;80.60;;;;;;5096917;28;20012;-68
2021/09/21 11:26:05;;;;;;;12.40;8.48;;;16.80;81.40;;;;;;5096761;28;20081;-68
2021/09/21 11:28:38;;;;;;;12.35;8.70;;;16.90;80.70;;;;;;5096665;28;20184;-68
2021/09/21 11:31:04;;;;;;;11.65;8.50;;;16.70;79.60;;;;;;5096748;28;20534;-69
2021/09/21 11:33:32;;;;;;;12.00;8.85;;;16.60;81.60;;;;;;5096871;28;20030;-69
2021/09/21 11:36:01;;;;;;;14.20;8.70;;;16.60;81.60;;;;;;5096607;28;20035;-69
2021/09/21 11:38:34;;;;;;;12.63;8.68;;;16.50;82.10;;;;;;5096587;28;20075;-68
2021/09/21 11:41:00;;;;;;;11.30;8.27;;;16.60;82.50;;;;;;5096897;28;20016;-70
2021/09/21 11:43:29;;;;;;;11.27;7.55;;;16.90;80.70;;;;;;5094931;28;20024;-69
2021/09/21 11:45:54;;;;;;;12.70;8.55;;;17.10;79.60;;;;;;5095820;28;20038;-69
2021/09/21 11:48:21;;;;;;;9.90;7.32;;;17.40;81.30;;;;;;5095375;28;20107;-71
2021/09/21 11:50:48;;;;;;;12.45;8.50;;;17.70;80.20;;;;;;5096434;28;20024;-68
2021/09/21 11:53:17;;;;;;;11.23;7.78;;;17.90;75.80;;;;;;5096726;28;20465;-69
2021/09/21 11:55:46;;;;;;;14.95;8.82;;;18.00;78.10;;;;;;5096451;28;20334;-69
2021/09/21 11:58:16;;;;;;;12.13;8.75;;;18.00;77.40;;;;;;5095191;28;20020;-70
2021/09/21 12:00:45;;;;;;;12.40;8.15;;;17.70;76.40;;;;;;5095819;28;20316;-69
2021/09/21 12:03:15;;;;;;;15.85;9.32;;;17.20;79.20;;;;;;5096128;28;20023;-69
2021/09/21 12:05:43;;;;;;;12.05;8.10;;;17.10;78.40;;;;;;5096234;28;20012;-69
2021/09/21 12:08:14;;;;;;;11.98;8.85;;;16.80;78.90;;;;;;5095868;28;20024;-68
2021/09/21 12:10:44;;;;;;;18.65;9.25;;;16.70;81.10;;;;;;5096215;28;20016;-70
2021/09/21 12:13:18;;;;;;;14.93;9.82;;;16.50;79.40;;;;;;5095176;28;20028;-69
2021/09/21 12:15:51;;;;;;;16.35;9.55;;;16.40;80.40;;;;;;5095914;28;20055;-69
2021/09/21 12:18:17;;;;;;;14.40;9.50;;;16.30;81.20;;;;;;5096081;28;20359;-70
2021/09/21 12:21:03;;;;;;;14.52;8.68;;;16.30;80.70;;;;;;5095820;28;20020;-70
2021/09/21 12:23:31;;;;;;;14.18;8.93;;;16.30;82.30;;;;;;5095443;28;20037;-69
2021/09/21 12:25:58;;;;;;;11.10;7.95;;;16.50;82.10;;;;;;5095962;28;20028;-69
2021/09/21 12:28:28;;;;;;;14.48;8.93;;;16.50;80.40;;;;;;5094750;28;20039;-69
2021/09/21 12:30:54;;;;;;;12.48;8.63;;;16.70;80.90;;;;;;5096142;28;20024;-68
2021/09/21 12:33:20;;;;;;;15.10;9.65;;;17.00;79.40;;;;;;5095969;28;20047;-71
2021/09/21 12:35:48;;;;;;;15.27;10.65;;;16.70;79.80;;;;;;5096048;28;20027;-68
2021/09/21 12:38:23;;;;;;;13.07;9.27;;;16.50;81.80;;;;;;5095518;28;20024;-69
2021/09/21 12:40:52;;;;;;;13.15;9.43;;;16.50;80.80;;;;;;5095939;28;20028;-70
2021/09/21 12:43:20;;;;;;;13.27;8.73;;;16.40;79.80;;;;;;5093748;28;20020;-69